This is the latest recevied weather packets stored in our database for station/object W1GK. If no packets are shown the sender has not sent any weather packets the latest 10 day(s).
| Time | Temp. | Humidity | Pressure | Rain* | Wind** | Luminosity | Snow |
|---|---|---|---|---|---|---|---|
| 1787688597 | 40.56° C | 16% | 1017 hPa | 0 mm | - | 823 W/m² | - |
| 1787687998 | 40.56° C | 17% | 1017.1 hPa | 0 mm | - | 826 W/m² | - |
| 1787687396 | 39.44° C | 17% | 1017.3 hPa | 0 mm | - | 826 W/m² | - |
| 1787686797 | 39.44° C | 18% | 1017.4 hPa | 0 mm | - | 830 W/m² | - |
| 1787686198 | 39.44° C | 18% | 1017.5 hPa | 0 mm | - | 824 W/m² | - |
| 1787685598 | 38.89° C | 19% | 1017.7 hPa | 0 mm | - | 828 W/m² | - |
| 1787684997 | 38.33° C | 19% | 1017.9 hPa | 0 mm | - | 821 W/m² | - |
| 1787684400 | 38.33° C | 20% | 1018 hPa | 0 mm | - | 816 W/m² | - |
| 1787683798 | 37.78° C | 21% | 1018.2 hPa | 0 mm | - | 807 W/m² | - |
| 1787683197 | 37.78° C | 21% | 1018.4 hPa | 0 mm | - | 798 W/m² | - |
| 1787682597 | 37.22° C | 21% | 1018.5 hPa | 0 mm | - | 788 W/m² | - |
| 1787681997 | 37.22° C | 22% | 1018.6 hPa | 0 mm | - | 773 W/m² | - |
| 1787681397 | 37.22° C | 21% | 1018.7 hPa | 0 mm | - | 761 W/m² | - |
| 1787680800 | 36.67° C | 22% | 1018.7 hPa | 0 mm | - | 747 W/m² | - |
| 1787680198 | 36.11° C | 22% | 1018.8 hPa | 0 mm | - | 731 W/m² | - |
| 1787679598 | 35.56° C | 22% | 1018.9 hPa | 0 mm | - | 712 W/m² | - |
| 1787678999 | 36.11° C | 22% | 1018.9 hPa | 0 mm | - | 696 W/m² | - |
| 1787678398 | 36.11° C | 22% | 1019 hPa | 0 mm | - | 677 W/m² | - |
| 1787677797 | 35° C | 23% | 1019 hPa | 0 mm | - | 656 W/m² | - |
| 1787677199 | 35° C | 24% | 1019 hPa | 0 mm | - | 633 W/m² | - |
| 1787676597 | 34.44° C | 24% | 1019 hPa | 0 mm | - | 612 W/m² | - |
| 1787675997 | 34.44° C | 24% | 1018.9 hPa | 0 mm | - | 585 W/m² | - |
| 1787675399 | 34.44° C | 25% | 1018.9 hPa | 0 mm | - | 563 W/m² | - |
| 1787674797 | 33.89° C | 25% | 1019 hPa | 0 mm | - | 534 W/m² | - |
| 1787674197 | 33.33° C | 26% | 1019 hPa | 0 mm | - | 508 W/m² | - |
* Rain latest hour (hover to see other rain measurements)
** Current wind speed in m/s (hover to see current wind gust speed)